sensor_id;sensor_type;location;lat;lon;timestamp;temperature;humidity
11009;DHT22;5557;51.670;7.788;2023-12-29T00:02:16;10.60;1.00
11009;DHT22;5557;51.670;7.788;2023-12-29T00:04:43;10.60;1.00
11009;DHT22;5557;51.670;7.788;2023-12-29T00:07:10;10.60;1.00
11009;DHT22;5557;51.670;7.788;2023-12-29T00:09:37;10.60;1.00
11009;DHT22;5557;51.670;7.788;2023-12-29T00:12:08;10.60;1.00
11009;DHT22;5557;51.670;7.788;2023-12-29T00:14:39;10.60;1.00
11009;DHT22;5557;51.670;7.788;2023-12-29T00:17:07;10.70;1.00
11009;DHT22;5557;51.670;7.788;2023-12-29T00:19:34;10.70;1.00
11009;DHT22;5557;51.670;7.788;2023-12-29T00:22:01;10.70;1.00
11009;DHT22;5557;51.670;7.788;2023-12-29T00:24:30;10.70;1.00
11009;DHT22;5557;51.670;7.788;2023-12-29T00:27:00;10.80;1.00
11009;DHT22;5557;51.670;7.788;2023-12-29T00:29:28;10.80;1.00
11009;DHT22;5557;51.670;7.788;2023-12-29T00:32:00;10.80;1.00
11009;DHT22;5557;51.670;7.788;2023-12-29T00:34:30;10.80;1.00
11009;DHT22;5557;51.670;7.788;2023-12-29T00:36:58;10.80;1.00
11009;DHT22;5557;51.670;7.788;2023-12-29T00:39:25;10.80;1.00
11009;DHT22;5557;51.670;7.788;2023-12-29T00:41:58;10.80;1.00
11009;DHT22;5557;51.670;7.788;2023-12-29T00:44:25;10.80;1.00
11009;DHT22;5557;51.670;7.788;2023-12-29T00:46:52;10.80;1.00
11009;DHT22;5557;51.670;7.788;2023-12-29T00:49:19;10.80;1.00
11009;DHT22;5557;51.670;7.788;2023-12-29T00:51:47;10.80;1.00
11009;DHT22;5557;51.670;7.788;2023-12-29T00:54:15;10.80;1.00
11009;DHT22;5557;51.670;7.788;2023-12-29T00:56:48;10.80;1.00
11009;DHT22;5557;51.670;7.788;2023-12-29T00:59:18;10.70;1.00
11009;DHT22;5557;51.670;7.788;2023-12-29T01:01:46;10.80;1.00
11009;DHT22;5557;51.670;7.788;2023-12-29T01:04:14;10.70;1.00
11009;DHT22;5557;51.670;7.788;2023-12-29T01:06:41;10.80;1.00
11009;DHT22;5557;51.670;7.788;2023-12-29T01:09:08;10.80;1.00
11009;DHT22;5557;51.670;7.788;2023-12-29T01:11:37;10.80;1.00
11009;DHT22;5557;51.670;7.788;2023-12-29T01:14:04;10.80;1.00
11009;DHT22;5557;51.670;7.788;2023-12-29T01:16:32;10.90;1.00
11009;DHT22;5557;51.670;7.788;2023-12-29T01:18:59;10.90;1.00
11009;DHT22;5557;51.670;7.788;2023-12-29T01:21:27;10.90;1.00
11009;DHT22;5557;51.670;7.788;2023-12-29T01:23:54;10.90;1.00
11009;DHT22;5557;51.670;7.788;2023-12-29T01:26:21;10.90;1.00
11009;DHT22;5557;51.670;7.788;2023-12-29T01:28:48;10.90;1.00
11009;DHT22;5557;51.670;7.788;2023-12-29T01:31:15;10.90;1.00
11009;DHT22;5557;51.670;7.788;2023-12-29T01:33:46;10.90;1.00
11009;DHT22;5557;51.670;7.788;2023-12-29T01:36:19;10.90;1.00
11009;DHT22;5557;51.670;7.788;2023-12-29T01:38:51;10.90;1.00
11009;DHT22;5557;51.670;7.788;2023-12-29T01:41:21;10.90;1.00
11009;DHT22;5557;51.670;7.788;2023-12-29T01:46:33;10.80;1.00
11009;DHT22;5557;51.670;7.788;2023-12-29T01:49:01;10.80;1.00
11009;DHT22;5557;51.670;7.788;2023-12-29T01:51:29;10.80;1.00
11009;DHT22;5557;51.670;7.788;2023-12-29T01:53:57;10.80;1.00
11009;DHT22;5557;51.670;7.788;2023-12-29T01:56:25;10.80;1.00
11009;DHT22;5557;51.670;7.788;2023-12-29T01:58:52;10.80;1.00
11009;DHT22;5557;51.670;7.788;2023-12-29T02:01:24;10.80;1.00
11009;DHT22;5557;51.670;7.788;2023-12-29T02:03:51;10.70;1.00
11009;DHT22;5557;51.670;7.788;2023-12-29T02:06:19;10.70;1.00
11009;DHT22;5557;51.670;7.788;2023-12-29T02:08:47;10.70;1.00
11009;DHT22;5557;51.670;7.788;2023-12-29T02:11:14;10.60;1.00
11009;DHT22;5557;51.670;7.788;2023-12-29T02:13:42;10.60;1.00
11009;DHT22;5557;51.670;7.788;2023-12-29T02:16:17;10.60;1.00
11009;DHT22;5557;51.670;7.788;2023-12-29T02:18:46;10.50;2.40
11009;DHT22;5557;51.670;7.788;2023-12-29T02:21:13;10.40;3.70
11009;DHT22;5557;51.670;7.788;2023-12-29T02:23:40;10.40;4.70
11009;DHT22;5557;51.670;7.788;2023-12-29T02:26:10;10.40;4.50
11009;DHT22;5557;51.670;7.788;2023-12-29T02:28:44;10.40;6.50
11009;DHT22;5557;51.670;7.788;2023-12-29T02:31:19;10.30;13.60
11009;DHT22;5557;51.670;7.788;2023-12-29T02:33:49;10.10;19.10
11009;DHT22;5557;51.670;7.788;2023-12-29T02:36:18;10.00;25.20
11009;DHT22;5557;51.670;7.788;2023-12-29T02:38:45;9.90;31.50
11009;DHT22;5557;51.670;7.788;2023-12-29T02:41:12;9.70;43.60
11009;DHT22;5557;51.670;7.788;2023-12-29T02:43:41;9.60;46.70
11009;DHT22;5557;51.670;7.788;2023-12-29T02:46:08;9.50;53.60
11009;DHT22;5557;51.670;7.788;2023-12-29T02:48:35;9.30;62.20
11009;DHT22;5557;51.670;7.788;2023-12-29T02:51:02;9.20;74.50
11009;DHT22;5557;51.670;7.788;2023-12-29T02:53:29;9.10;83.70
11009;DHT22;5557;51.670;7.788;2023-12-29T02:55:56;9.00;90.40
11009;DHT22;5557;51.670;7.788;2023-12-29T02:58:23;9.00;94.70
11009;DHT22;5557;51.670;7.788;2023-12-29T03:00:50;8.90;98.30
11009;DHT22;5557;51.670;7.788;2023-12-29T03:03:17;8.80;99.90
11009;DHT22;5557;51.670;7.788;2023-12-29T03:05:44;8.80;99.90
11009;DHT22;5557;51.670;7.788;2023-12-29T03:08:11;8.80;99.90
11009;DHT22;5557;51.670;7.788;2023-12-29T03:10:38;8.70;99.90
11009;DHT22;5557;51.670;7.788;2023-12-29T03:13:05;8.70;99.90
11009;DHT22;5557;51.670;7.788;2023-12-29T03:15:32;8.70;99.90
11009;DHT22;5557;51.670;7.788;2023-12-29T03:17:59;8.70;99.90
11009;DHT22;5557;51.670;7.788;2023-12-29T03:20:26;8.60;99.90
11009;DHT22;5557;51.670;7.788;2023-12-29T03:22:53;8.60;99.90
11009;DHT22;5557;51.670;7.788;2023-12-29T03:25:22;8.60;99.90
11009;DHT22;5557;51.670;7.788;2023-12-29T03:27:49;8.60;99.90
11009;DHT22;5557;51.670;7.788;2023-12-29T03:30:16;8.60;99.90
11009;DHT22;5557;51.670;7.788;2023-12-29T03:32:43;8.50;99.90
11009;DHT22;5557;51.670;7.788;2023-12-29T03:35:11;8.60;99.90
11009;DHT22;5557;51.670;7.788;2023-12-29T03:37:38;8.60;99.90
11009;DHT22;5557;51.670;7.788;2023-12-29T03:40:06;8.60;99.90
11009;DHT22;5557;51.670;7.788;2023-12-29T03:42:33;8.60;99.90
11009;DHT22;5557;51.670;7.788;2023-12-29T03:45:00;8.60;99.90
11009;DHT22;5557;51.670;7.788;2023-12-29T03:47:27;8.60;99.90
11009;DHT22;5557;51.670;7.788;2023-12-29T03:49:54;8.70;99.90
11009;DHT22;5557;51.670;7.788;2023-12-29T03:52:21;8.70;99.90
11009;DHT22;5557;51.670;7.788;2023-12-29T03:54:48;8.70;99.90
11009;DHT22;5557;51.670;7.788;2023-12-29T03:57:15;8.70;99.90
11009;DHT22;5557;51.670;7.788;2023-12-29T03:59:42;8.70;99.90
11009;DHT22;5557;51.670;7.788;2023-12-29T04:02:09;8.80;99.90
11009;DHT22;5557;51.670;7.788;2023-12-29T04:04:37;8.80;99.90
11009;DHT22;5557;51.670;7.788;2023-12-29T04:07:05;8.90;99.90
11009;DHT22;5557;51.670;7.788;2023-12-29T04:09:33;8.90;99.90
11009;DHT22;5557;51.670;7.788;2023-12-29T04:12:00;9.00;99.90
11009;DHT22;5557;51.670;7.788;2023-12-29T04:14:26;9.10;99.50
11009;DHT22;5557;51.670;7.788;2023-12-29T04:16:53;9.10;97.40
11009;DHT22;5557;51.670;7.788;2023-12-29T04:19:20;9.10;97.40
11009;DHT22;5557;51.670;7.788;2023-12-29T04:21:47;9.10;95.70
11009;DHT22;5557;51.670;7.788;2023-12-29T04:24:14;9.20;89.50
11009;DHT22;5557;51.670;7.788;2023-12-29T04:26:41;9.30;85.20
11009;DHT22;5557;51.670;7.788;2023-12-29T04:29:08;9.40;81.40
11009;DHT22;5557;51.670;7.788;2023-12-29T04:31:35;9.40;76.70
11009;DHT22;5557;51.670;7.788;2023-12-29T04:34:03;9.40;74.60
11009;DHT22;5557;51.670;7.788;2023-12-29T04:36:30;9.50;69.80
11009;DHT22;5557;51.670;7.788;2023-12-29T04:38:57;9.50;62.30
11009;DHT22;5557;51.670;7.788;2023-12-29T04:41:24;9.50;57.00
11009;DHT22;5557;51.670;7.788;2023-12-29T04:43:51;9.50;57.70
11009;DHT22;5557;51.670;7.788;2023-12-29T04:46:18;9.50;61.00
11009;DHT22;5557;51.670;7.788;2023-12-29T04:48:45;9.40;60.70
11009;DHT22;5557;51.670;7.788;2023-12-29T04:51:12;9.40;59.80
11009;DHT22;5557;51.670;7.788;2023-12-29T04:53:39;9.40;59.10
11009;DHT22;5557;51.670;7.788;2023-12-29T04:56:06;9.40;58.00
11009;DHT22;5557;51.670;7.788;2023-12-29T04:58:33;9.40;56.00
11009;DHT22;5557;51.670;7.788;2023-12-29T05:01:00;9.40;52.90
11009;DHT22;5557;51.670;7.788;2023-12-29T05:03:27;9.50;51.70
11009;DHT22;5557;51.670;7.788;2023-12-29T05:05:54;9.50;50.20
11009;DHT22;5557;51.670;7.788;2023-12-29T05:08:21;9.40;51.40
11009;DHT22;5557;51.670;7.788;2023-12-29T05:10:48;9.50;50.30
11009;DHT22;5557;51.670;7.788;2023-12-29T05:13:15;9.50;47.30
11009;DHT22;5557;51.670;7.788;2023-12-29T05:15:42;9.60;46.50
11009;DHT22;5557;51.670;7.788;2023-12-29T05:18:10;9.60;43.70
11009;DHT22;5557;51.670;7.788;2023-12-29T05:20:37;9.70;42.40
11009;DHT22;5557;51.670;7.788;2023-12-29T05:23:04;9.70;41.50
11009;DHT22;5557;51.670;7.788;2023-12-29T05:25:31;9.70;41.80
11009;DHT22;5557;51.670;7.788;2023-12-29T05:27:58;9.70;40.80
11009;DHT22;5557;51.670;7.788;2023-12-29T05:30:25;9.70;40.60
11009;DHT22;5557;51.670;7.788;2023-12-29T05:32:58;9.70;41.70
11009;DHT22;5557;51.670;7.788;2023-12-29T05:35:26;9.70;37.80
11009;DHT22;5557;51.670;7.788;2023-12-29T05:37:53;9.80;38.40
11009;DHT22;5557;51.670;7.788;2023-12-29T05:40:20;9.80;36.40
11009;DHT22;5557;51.670;7.788;2023-12-29T05:42:47;9.80;36.70
11009;DHT22;5557;51.670;7.788;2023-12-29T05:45:16;9.80;34.80
11009;DHT22;5557;51.670;7.788;2023-12-29T05:47:43;9.80;33.60
11009;DHT22;5557;51.670;7.788;2023-12-29T05:50:11;9.80;31.80
11009;DHT22;5557;51.670;7.788;2023-12-29T05:52:38;9.80;32.30
11009;DHT22;5557;51.670;7.788;2023-12-29T05:55:05;9.80;33.40
11009;DHT22;5557;51.670;7.788;2023-12-29T05:57:32;9.80;32.20
11009;DHT22;5557;51.670;7.788;2023-12-29T05:59:59;9.70;32.70
11009;DHT22;5557;51.670;7.788;2023-12-29T06:02:26;9.70;32.60
11009;DHT22;5557;51.670;7.788;2023-12-29T06:04:53;9.70;30.00
11009;DHT22;5557;51.670;7.788;2023-12-29T06:07:20;9.80;28.90
11009;DHT22;5557;51.670;7.788;2023-12-29T06:09:47;9.80;27.00
11009;DHT22;5557;51.670;7.788;2023-12-29T06:12:14;9.80;25.10
11009;DHT22;5557;51.670;7.788;2023-12-29T06:14:41;9.90;24.20
11009;DHT22;5557;51.670;7.788;2023-12-29T06:17:08;9.90;22.80
11009;DHT22;5557;51.670;7.788;2023-12-29T06:19:35;9.90;22.50
11009;DHT22;5557;51.670;7.788;2023-12-29T06:22:02;9.90;21.60
11009;DHT22;5557;51.670;7.788;2023-12-29T06:24:30;9.90;20.40
11009;DHT22;5557;51.670;7.788;2023-12-29T06:26:57;9.90;19.60
11009;DHT22;5557;51.670;7.788;2023-12-29T06:29:23;9.90;19.50
11009;DHT22;5557;51.670;7.788;2023-12-29T06:31:51;9.90;19.40
11009;DHT22;5557;51.670;7.788;2023-12-29T06:34:18;9.90;19.20
11009;DHT22;5557;51.670;7.788;2023-12-29T06:36:47;9.90;18.70
11009;DHT22;5557;51.670;7.788;2023-12-29T06:39:14;9.90;16.50
11009;DHT22;5557;51.670;7.788;2023-12-29T06:41:41;9.90;15.50
11009;DHT22;5557;51.670;7.788;2023-12-29T06:44:08;10.00;13.00
11009;DHT22;5557;51.670;7.788;2023-12-29T06:46:37;10.10;9.90
11009;DHT22;5557;51.670;7.788;2023-12-29T06:49:06;10.10;11.10
11009;DHT22;5557;51.670;7.788;2023-12-29T06:51:33;10.00;11.90
11009;DHT22;5557;51.670;7.788;2023-12-29T06:54:01;10.00;10.80
11009;DHT22;5557;51.670;7.788;2023-12-29T06:56:28;10.00;10.20
11009;DHT22;5557;51.670;7.788;2023-12-29T06:58:55;10.00;10.70
11009;DHT22;5557;51.670;7.788;2023-12-29T07:01:22;10.00;9.20
11009;DHT22;5557;51.670;7.788;2023-12-29T07:03:49;10.10;8.80
11009;DHT22;5557;51.670;7.788;2023-12-29T07:06:16;10.10;9.10
11009;DHT22;5557;51.670;7.788;2023-12-29T07:08:43;10.00;9.10
11009;DHT22;5557;51.670;7.788;2023-12-29T07:11:11;10.00;10.50
11009;DHT22;5557;51.670;7.788;2023-12-29T07:13:41;10.00;11.70
11009;DHT22;5557;51.670;7.788;2023-12-29T07:16:08;10.00;10.70
11009;DHT22;5557;51.670;7.788;2023-12-29T07:18:36;10.00;11.20
11009;DHT22;5557;51.670;7.788;2023-12-29T07:21:03;10.00;10.90
11009;DHT22;5557;51.670;7.788;2023-12-29T07:23:30;10.00;11.50
11009;DHT22;5557;51.670;7.788;2023-12-29T07:25:57;10.00;13.10
11009;DHT22;5557;51.670;7.788;2023-12-29T07:28:24;10.00;11.70
11009;DHT22;5557;51.670;7.788;2023-12-29T07:30:54;10.00;10.00
11009;DHT22;5557;51.670;7.788;2023-12-29T07:33:21;10.00;10.90
11009;DHT22;5557;51.670;7.788;2023-12-29T07:35:48;10.10;10.20
11009;DHT22;5557;51.670;7.788;2023-12-29T07:38:16;10.10;9.80
11009;DHT22;5557;51.670;7.788;2023-12-29T07:40:43;10.10;9.90
11009;DHT22;5557;51.670;7.788;2023-12-29T07:43:10;10.10;13.00
11009;DHT22;5557;51.670;7.788;2023-12-29T07:45:37;10.00;20.80
11009;DHT22;5557;51.670;7.788;2023-12-29T07:48:04;9.90;31.20
11009;DHT22;5557;51.670;7.788;2023-12-29T07:50:36;9.70;38.60
11009;DHT22;5557;51.670;7.788;2023-12-29T07:53:03;9.60;48.80
11009;DHT22;5557;51.670;7.788;2023-12-29T07:55:33;9.40;56.30
11009;DHT22;5557;51.670;7.788;2023-12-29T07:58:03;9.40;61.90
11009;DHT22;5557;51.670;7.788;2023-12-29T08:00:31;9.30;67.10
11009;DHT22;5557;51.670;7.788;2023-12-29T08:02:57;9.20;69.60
11009;DHT22;5557;51.670;7.788;2023-12-29T08:05:26;9.20;73.60
11009;DHT22;5557;51.670;7.788;2023-12-29T08:07:53;9.20;73.90
11009;DHT22;5557;51.670;7.788;2023-12-29T08:10:20;9.20;72.90
11009;DHT22;5557;51.670;7.788;2023-12-29T08:12:47;9.20;76.00
11009;DHT22;5557;51.670;7.788;2023-12-29T08:15:14;9.20;68.80
11009;DHT22;5557;51.670;7.788;2023-12-29T08:17:41;9.20;72.30
11009;DHT22;5557;51.670;7.788;2023-12-29T08:20:09;9.20;75.40
11009;DHT22;5557;51.670;7.788;2023-12-29T08:22:36;9.20;78.30
11009;DHT22;5557;51.670;7.788;2023-12-29T08:25:05;9.10;80.20
11009;DHT22;5557;51.670;7.788;2023-12-29T08:27:32;9.20;83.00
11009;DHT22;5557;51.670;7.788;2023-12-29T08:29:59;9.20;83.20
11009;DHT22;5557;51.670;7.788;2023-12-29T08:32:26;9.20;83.30
11009;DHT22;5557;51.670;7.788;2023-12-29T08:34:53;9.20;83.10
11009;DHT22;5557;51.670;7.788;2023-12-29T08:37:23;9.20;83.90
11009;DHT22;5557;51.670;7.788;2023-12-29T08:39:50;9.20;84.80
11009;DHT22;5557;51.670;7.788;2023-12-29T08:42:17;9.20;86.90
11009;DHT22;5557;51.670;7.788;2023-12-29T08:44:44;9.20;91.00
11009;DHT22;5557;51.670;7.788;2023-12-29T08:47:10;9.10;93.20
11009;DHT22;5557;51.670;7.788;2023-12-29T08:49:37;9.10;94.90
11009;DHT22;5557;51.670;7.788;2023-12-29T08:52:05;9.10;95.70
11009;DHT22;5557;51.670;7.788;2023-12-29T08:54:32;9.10;97.40
11009;DHT22;5557;51.670;7.788;2023-12-29T08:57:00;9.00;99.10
11009;DHT22;5557;51.670;7.788;2023-12-29T08:59:27;9.00;99.90
11009;DHT22;5557;51.670;7.788;2023-12-29T09:01:54;9.00;99.90
11009;DHT22;5557;51.670;7.788;2023-12-29T09:04:21;9.00;99.90
11009;DHT22;5557;51.670;7.788;2023-12-29T09:06:48;9.10;99.70
11009;DHT22;5557;51.670;7.788;2023-12-29T09:09:15;9.10;99.00
11009;DHT22;5557;51.670;7.788;2023-12-29T09:11:43;9.10;99.80
11009;DHT22;5557;51.670;7.788;2023-12-29T09:14:10;9.10;99.80
11009;DHT22;5557;51.670;7.788;2023-12-29T09:16:37;9.10;99.60
11009;DHT22;5557;51.670;7.788;2023-12-29T09:19:08;9.10;99.10
11009;DHT22;5557;51.670;7.788;2023-12-29T09:21:55;9.20;97.00
11009;DHT22;5557;51.670;7.788;2023-12-29T09:24:22;9.20;95.60
11009;DHT22;5557;51.670;7.788;2023-12-29T09:26:49;9.30;93.40
11009;DHT22;5557;51.670;7.788;2023-12-29T09:29:17;9.30;92.10
11009;DHT22;5557;51.670;7.788;2023-12-29T09:31:44;9.40;90.30
11009;DHT22;5557;51.670;7.788;2023-12-29T09:34:12;9.40;88.20
11009;DHT22;5557;51.670;7.788;2023-12-29T09:39:09;9.40;86.00
11009;DHT22;5557;51.670;7.788;2023-12-29T09:41:39;9.50;86.40
11009;DHT22;5557;51.670;7.788;2023-12-29T09:44:13;9.50;85.70
11009;DHT22;5557;51.670;7.788;2023-12-29T09:46:41;9.50;84.00
11009;DHT22;5557;51.670;7.788;2023-12-29T09:49:09;9.50;86.90
11009;DHT22;5557;51.670;7.788;2023-12-29T09:51:37;9.50;84.00
11009;DHT22;5557;51.670;7.788;2023-12-29T09:54:06;9.50;82.10
11009;DHT22;5557;51.670;7.788;2023-12-29T09:56:37;9.50;79.90
11009;DHT22;5557;51.670;7.788;2023-12-29T09:59:06;9.60;78.40
11009;DHT22;5557;51.670;7.788;2023-12-29T10:01:37;9.50;77.50
11009;DHT22;5557;51.670;7.788;2023-12-29T10:04:06;9.60;73.50
11009;DHT22;5557;51.670;7.788;2023-12-29T10:06:36;9.70;70.50
11009;DHT22;5557;51.670;7.788;2023-12-29T10:09:07;9.70;66.80
11009;DHT22;5557;51.670;7.788;2023-12-29T10:11:37;9.80;64.80
11009;DHT22;5557;51.670;7.788;2023-12-29T10:14:22;9.80;62.50
11009;DHT22;5557;51.670;7.788;2023-12-29T10:16:55;9.80;64.70
11009;DHT22;5557;51.670;7.788;2023-12-29T10:19:54;9.80;64.10
11009;DHT22;5557;51.670;7.788;2023-12-29T10:23:23;9.80;63.20
11009;DHT22;5557;51.670;7.788;2023-12-29T10:25:29;9.90;64.40
11009;DHT22;5557;51.670;7.788;2023-12-29T10:27:57;9.90;64.80
11009;DHT22;5557;51.670;7.788;2023-12-29T10:30:25;9.90;65.70
11009;DHT22;5557;51.670;7.788;2023-12-29T10:33:01;9.90;61.10
11009;DHT22;5557;51.670;7.788;2023-12-29T10:35:31;10.00;56.60
11009;DHT22;5557;51.670;7.788;2023-12-29T10:38:10;10.00;56.20
11009;DHT22;5557;51.670;7.788;2023-12-29T10:40:38;10.00;53.60
11009;DHT22;5557;51.670;7.788;2023-12-29T10:43:05;10.00;55.50
11009;DHT22;5557;51.670;7.788;2023-12-29T10:45:34;10.00;54.70
11009;DHT22;5557;51.670;7.788;2023-12-29T10:48:03;10.00;55.00
11009;DHT22;5557;51.670;7.788;2023-12-29T10:50:45;10.00;53.10
11009;DHT22;5557;51.670;7.788;2023-12-29T10:53:13;10.00;54.20
11009;DHT22;5557;51.670;7.788;2023-12-29T10:55:40;10.00;52.50
11009;DHT22;5557;51.670;7.788;2023-12-29T10:58:08;10.00;52.20
11009;DHT22;5557;51.670;7.788;2023-12-29T11:00:35;10.00;51.10
11009;DHT22;5557;51.670;7.788;2023-12-29T11:03:04;10.10;48.80
11009;DHT22;5557;51.670;7.788;2023-12-29T11:05:31;10.10;49.80
11009;DHT22;5557;51.670;7.788;2023-12-29T11:08:00;10.10;48.30
11009;DHT22;5557;51.670;7.788;2023-12-29T11:10:27;10.20;46.60
11009;DHT22;5557;51.670;7.788;2023-12-29T11:12:55;10.20;45.20
11009;DHT22;5557;51.670;7.788;2023-12-29T11:15:24;10.20;43.50
11009;DHT22;5557;51.670;7.788;2023-12-29T11:17:55;10.20;43.40
11009;DHT22;5557;51.670;7.788;2023-12-29T11:20:23;10.30;44.70
11009;DHT22;5557;51.670;7.788;2023-12-29T11:22:53;10.30;43.90
11009;DHT22;5557;51.670;7.788;2023-12-29T11:25:20;10.40;45.30
11009;DHT22;5557;51.670;7.788;2023-12-29T11:27:48;10.40;46.60
11009;DHT22;5557;51.670;7.788;2023-12-29T11:30:16;10.50;47.10
11009;DHT22;5557;51.670;7.788;2023-12-29T11:36:00;10.50;45.70
11009;DHT22;5557;51.670;7.788;2023-12-29T11:41:56;10.60;44.80
11009;DHT22;5557;51.670;7.788;2023-12-29T11:44:26;10.60;39.90
11009;DHT22;5557;51.670;7.788;2023-12-29T11:46:55;10.60;36.80
11009;DHT22;5557;51.670;7.788;2023-12-29T11:49:23;10.70;33.20
11009;DHT22;5557;51.670;7.788;2023-12-29T11:51:51;10.80;30.80
11009;DHT22;5557;51.670;7.788;2023-12-29T11:54:23;10.80;28.80
11009;DHT22;5557;51.670;7.788;2023-12-29T11:56:50;10.80;28.10
11009;DHT22;5557;51.670;7.788;2023-12-29T11:59:24;10.90;27.00
11009;DHT22;5557;51.670;7.788;2023-12-29T12:01:53;10.80;26.20
11009;DHT22;5557;51.670;7.788;2023-12-29T12:04:41;10.90;27.80
11009;DHT22;5557;51.670;7.788;2023-12-29T12:07:13;10.90;28.20
11009;DHT22;5557;51.670;7.788;2023-12-29T12:09:40;10.90;30.00
11009;DHT22;5557;51.670;7.788;2023-12-29T12:12:07;10.90;31.40
11009;DHT22;5557;51.670;7.788;2023-12-29T12:14:53;10.90;34.00
11009;DHT22;5557;51.670;7.788;2023-12-29T12:17:47;10.80;37.00
11009;DHT22;5557;51.670;7.788;2023-12-29T12:20:17;10.80;41.10
11009;DHT22;5557;51.670;7.788;2023-12-29T12:22:44;10.70;41.00
11009;DHT22;5557;51.670;7.788;2023-12-29T12:25:12;10.80;41.50
11009;DHT22;5557;51.670;7.788;2023-12-29T12:27:39;10.80;38.50
11009;DHT22;5557;51.670;7.788;2023-12-29T12:30:07;10.80;38.70
11009;DHT22;5557;51.670;7.788;2023-12-29T12:32:37;10.80;37.60
11009;DHT22;5557;51.670;7.788;2023-12-29T12:35:13;10.80;34.60
11009;DHT22;5557;51.670;7.788;2023-12-29T12:37:45;10.90;34.60
11009;DHT22;5557;51.670;7.788;2023-12-29T12:40:25;10.90;31.70
11009;DHT22;5557;51.670;7.788;2023-12-29T12:42:53;10.90;29.20
11009;DHT22;5557;51.670;7.788;2023-12-29T12:45:21;11.00;27.00
11009;DHT22;5557;51.670;7.788;2023-12-29T12:47:59;11.00;26.30
11009;DHT22;5557;51.670;7.788;2023-12-29T12:50:27;11.00;26.80
11009;DHT22;5557;51.670;7.788;2023-12-29T12:52:56;11.00;25.10
11009;DHT22;5557;51.670;7.788;2023-12-29T12:55:25;11.00;26.20
11009;DHT22;5557;51.670;7.788;2023-12-29T12:57:54;11.00;24.70
11009;DHT22;5557;51.670;7.788;2023-12-29T13:00:22;11.00;23.60
11009;DHT22;5557;51.670;7.788;2023-12-29T13:02:49;11.00;22.90
11009;DHT22;5557;51.670;7.788;2023-12-29T13:05:16;11.00;21.80
11009;DHT22;5557;51.670;7.788;2023-12-29T13:07:45;11.00;23.00
11009;DHT22;5557;51.670;7.788;2023-12-29T13:10:12;11.00;21.90
11009;DHT22;5557;51.670;7.788;2023-12-29T13:12:39;11.00;23.00
11009;DHT22;5557;51.670;7.788;2023-12-29T13:15:09;11.00;24.00
11009;DHT22;5557;51.670;7.788;2023-12-29T13:17:36;11.00;25.50
11009;DHT22;5557;51.670;7.788;2023-12-29T13:20:04;11.00;26.50
11009;DHT22;5557;51.670;7.788;2023-12-29T13:22:33;11.00;27.10
11009;DHT22;5557;51.670;7.788;2023-12-29T13:25:05;11.00;27.30
11009;DHT22;5557;51.670;7.788;2023-12-29T13:27:32;10.90;29.20
11009;DHT22;5557;51.670;7.788;2023-12-29T13:29:59;10.90;30.40
11009;DHT22;5557;51.670;7.788;2023-12-29T13:32:27;10.90;29.80
11009;DHT22;5557;51.670;7.788;2023-12-29T13:35:11;10.80;31.00
11009;DHT22;5557;51.670;7.788;2023-12-29T13:38:11;10.80;39.70
11009;DHT22;5557;51.670;7.788;2023-12-29T13:41:15;10.60;53.90
11009;DHT22;5557;51.670;7.788;2023-12-29T13:43:37;10.40;66.20
11009;DHT22;5557;51.670;7.788;2023-12-29T13:46:10;9.90;69.20
11009;DHT22;5557;51.670;7.788;2023-12-29T13:48:38;9.50;72.90
11009;DHT22;5557;51.670;7.788;2023-12-29T13:51:07;9.20;83.00
11009;DHT22;5557;51.670;7.788;2023-12-29T13:53:34;9.10;92.80
11009;DHT22;5557;51.670;7.788;2023-12-29T13:56:08;9.00;98.80
11009;DHT22;5557;51.670;7.788;2023-12-29T13:58:36;8.80;99.90
11009;DHT22;5557;51.670;7.788;2023-12-29T14:01:06;8.80;99.90
11009;DHT22;5557;51.670;7.788;2023-12-29T14:03:43;8.60;99.90
11009;DHT22;5557;51.670;7.788;2023-12-29T14:06:22;8.50;99.90
11009;DHT22;5557;51.670;7.788;2023-12-29T14:08:52;8.40;99.90
11009;DHT22;5557;51.670;7.788;2023-12-29T14:11:19;8.30;99.90
11009;DHT22;5557;51.670;7.788;2023-12-29T14:13:47;8.20;99.90
11009;DHT22;5557;51.670;7.788;2023-12-29T14:16:16;8.20;99.90
11009;DHT22;5557;51.670;7.788;2023-12-29T14:18:55;8.20;99.90
11009;DHT22;5557;51.670;7.788;2023-12-29T14:21:31;8.20;99.90
11009;DHT22;5557;51.670;7.788;2023-12-29T14:26:57;8.10;99.90
11009;DHT22;5557;51.670;7.788;2023-12-29T14:29:26;8.10;99.90
11009;DHT22;5557;51.670;7.788;2023-12-29T14:31:54;8.10;99.90
11009;DHT22;5557;51.670;7.788;2023-12-29T14:34:24;8.00;99.90
11009;DHT22;5557;51.670;7.788;2023-12-29T14:36:52;8.00;99.90
11009;DHT22;5557;51.670;7.788;2023-12-29T14:39:22;8.00;99.90
11009;DHT22;5557;51.670;7.788;2023-12-29T14:41:50;8.00;99.90
11009;DHT22;5557;51.670;7.788;2023-12-29T14:44:19;8.00;99.90
11009;DHT22;5557;51.670;7.788;2023-12-29T14:46:47;8.00;99.90
11009;DHT22;5557;51.670;7.788;2023-12-29T14:49:14;8.10;99.90
11009;DHT22;5557;51.670;7.788;2023-12-29T14:51:41;8.10;99.90
11009;DHT22;5557;51.670;7.788;2023-12-29T14:54:08;8.10;99.90
11009;DHT22;5557;51.670;7.788;2023-12-29T14:56:35;8.20;99.90
11009;DHT22;5557;51.670;7.788;2023-12-29T14:59:02;8.20;99.90
11009;DHT22;5557;51.670;7.788;2023-12-29T15:01:32;8.20;99.90
11009;DHT22;5557;51.670;7.788;2023-12-29T15:04:00;8.20;99.90
11009;DHT22;5557;51.670;7.788;2023-12-29T15:06:28;8.20;99.90
11009;DHT22;5557;51.670;7.788;2023-12-29T15:08:55;8.10;99.90
11009;DHT22;5557;51.670;7.788;2023-12-29T15:11:23;8.20;99.90
11009;DHT22;5557;51.670;7.788;2023-12-29T15:13:50;8.20;99.90
11009;DHT22;5557;51.670;7.788;2023-12-29T15:16:29;8.20;99.90
11009;DHT22;5557;51.670;7.788;2023-12-29T15:18:56;8.20;99.90
11009;DHT22;5557;51.670;7.788;2023-12-29T15:21:23;8.20;99.90
11009;DHT22;5557;51.670;7.788;2023-12-29T15:23:50;8.20;99.90
11009;DHT22;5557;51.670;7.788;2023-12-29T15:26:17;8.20;99.90
11009;DHT22;5557;51.670;7.788;2023-12-29T15:28:45;8.20;99.90
11009;DHT22;5557;51.670;7.788;2023-12-29T15:31:12;8.30;99.90
11009;DHT22;5557;51.670;7.788;2023-12-29T15:33:41;8.30;99.90
11009;DHT22;5557;51.670;7.788;2023-12-29T15:36:13;8.40;99.90
11009;DHT22;5557;51.670;7.788;2023-12-29T15:38:41;8.60;99.90
11009;DHT22;5557;51.670;7.788;2023-12-29T15:41:09;8.80;99.90
11009;DHT22;5557;51.670;7.788;2023-12-29T15:43:36;8.90;99.90
11009;DHT22;5557;51.670;7.788;2023-12-29T15:46:11;9.00;99.90
11009;DHT22;5557;51.670;7.788;2023-12-29T15:48:39;9.10;99.90
11009;DHT22;5557;51.670;7.788;2023-12-29T15:51:07;9.10;99.90
11009;DHT22;5557;51.670;7.788;2023-12-29T15:53:34;9.10;99.90
11009;DHT22;5557;51.670;7.788;2023-12-29T15:56:02;9.10;99.90
11009;DHT22;5557;51.670;7.788;2023-12-29T15:58:31;9.20;99.90
11009;DHT22;5557;51.670;7.788;2023-12-29T16:00:59;9.20;99.90
11009;DHT22;5557;51.670;7.788;2023-12-29T16:03:26;9.20;99.90
11009;DHT22;5557;51.670;7.788;2023-12-29T16:05:53;9.20;99.90
11009;DHT22;5557;51.670;7.788;2023-12-29T16:08:20;9.10;99.90
11009;DHT22;5557;51.670;7.788;2023-12-29T16:10:47;9.20;99.90
11009;DHT22;5557;51.670;7.788;2023-12-29T16:13:14;9.20;99.90
11009;DHT22;5557;51.670;7.788;2023-12-29T16:15:43;9.20;99.90
11009;DHT22;5557;51.670;7.788;2023-12-29T16:18:13;9.20;99.90
11009;DHT22;5557;51.670;7.788;2023-12-29T16:20:41;9.20;99.90
11009;DHT22;5557;51.670;7.788;2023-12-29T16:23:08;9.10;99.90